createdAt,value
2022-08-20T00:01:01.955Z,20.10
2022-08-20T00:03:34.190Z,20.20
2022-08-20T00:06:11.226Z,20.20
2022-08-20T00:08:37.677Z,20.20
2022-08-20T00:11:05.549Z,20.20
2022-08-20T00:13:44.170Z,20.20
2022-08-20T00:16:10.477Z,20.20
2022-08-20T00:18:36.921Z,20.10
2022-08-20T00:21:05.417Z,20.20
2022-08-20T00:23:31.701Z,20.20
2022-08-20T00:25:57.937Z,20.10
2022-08-20T00:28:24.177Z,20.10
2022-08-20T00:30:50.664Z,20.10
2022-08-20T00:33:21.158Z,20.10
2022-08-20T00:35:49.479Z,20.00
2022-08-20T00:38:15.768Z,20.00
2022-08-20T00:40:45.691Z,20.00
2022-08-20T00:43:35.554Z,20.00
2022-08-20T00:46:07.197Z,19.80
2022-08-20T00:48:34.883Z,19.70
2022-08-20T00:51:14.781Z,19.50
2022-08-20T00:53:41.688Z,19.50
2022-08-20T00:56:08.601Z,19.50
2022-08-20T00:58:35.487Z,19.50
2022-08-20T01:01:01.739Z,19.60
2022-08-20T01:03:27.954Z,19.50
2022-08-20T01:05:54.235Z,19.50
2022-08-20T01:08:23.929Z,19.60
2022-08-20T01:10:53.097Z,19.60
2022-08-20T01:13:23.066Z,19.50
2022-08-20T01:15:51.312Z,19.40
2022-08-20T01:18:20.437Z,19.50
2022-08-20T01:20:49.623Z,19.40
2022-08-20T01:23:36.152Z,19.50
2022-08-20T01:26:13.573Z,19.50
2022-08-20T01:28:45.522Z,19.50
2022-08-20T01:31:25.841Z,19.60
2022-08-20T01:33:52.803Z,19.60
2022-08-20T01:36:22.778Z,19.60
2022-08-20T01:38:54.702Z,19.70
2022-08-20T01:44:53.126Z,19.80
2022-08-20T01:47:38.438Z,19.80
2022-08-20T01:50:17.808Z,19.70
2022-08-20T01:52:57.500Z,19.60
2022-08-20T01:55:23.836Z,19.60
2022-08-20T01:57:50.076Z,19.60
2022-08-20T02:00:19.594Z,19.60
2022-08-20T02:02:46.519Z,19.70
2022-08-20T02:05:12.784Z,19.60
2022-08-20T02:07:39.020Z,19.50
2022-08-20T02:10:06.688Z,19.40
2022-08-20T02:12:32.927Z,19.40
2022-08-20T02:14:59.891Z,19.30
2022-08-20T02:17:26.609Z,19.30
2022-08-20T02:19:59.128Z,19.30
2022-08-20T02:23:00.519Z,19.20
2022-08-20T02:25:28.564Z,19.30
2022-08-20T02:27:55.779Z,19.30
2022-08-20T02:30:28.599Z,19.30
2022-08-20T02:32:56.883Z,19.30
2022-08-20T02:35:23.999Z,19.40
2022-08-20T02:37:50.265Z,19.40
2022-08-20T02:40:18.084Z,19.40
2022-08-20T02:42:54.599Z,19.50
2022-08-20T02:45:21.981Z,19.70
2022-08-20T02:47:48.279Z,19.80
2022-08-20T02:50:16.947Z,19.70
2022-08-20T02:52:47.182Z,19.80
2022-08-20T02:55:28.090Z,19.80
2022-08-20T02:57:59.624Z,19.90
2022-08-20T03:00:27.691Z,19.90
2022-08-20T03:02:53.965Z,19.90
2022-08-20T03:05:20.597Z,19.90
2022-08-20T03:07:49.107Z,19.90
2022-08-20T03:10:17.285Z,19.90
2022-08-20T03:12:43.522Z,19.90
2022-08-20T03:15:17.561Z,19.80
2022-08-20T03:17:44.972Z,19.90
2022-08-20T03:20:11.818Z,19.90
2022-08-20T03:22:38.044Z,19.80
2022-08-20T03:25:04.924Z,19.80
2022-08-20T03:27:32.660Z,19.80
2022-08-20T03:30:06.051Z,19.70
2022-08-20T03:32:33.111Z,19.70
2022-08-20T03:34:59.344Z,19.60
2022-08-20T03:37:30.594Z,19.60
2022-08-20T03:39:57.144Z,19.50
2022-08-20T03:42:23.721Z,19.50
2022-08-20T03:44:59.003Z,19.40
2022-08-20T03:47:26.429Z,19.40
2022-08-20T03:49:56.804Z,19.50
2022-08-20T03:52:23.187Z,19.50
2022-08-20T03:54:50.131Z,19.50
2022-08-20T03:57:16.468Z,19.60
2022-08-20T03:59:43.891Z,19.70
2022-08-20T04:02:11.652Z,19.70
2022-08-20T04:04:40.007Z,19.70
2022-08-20T04:07:25.148Z,19.70
2022-08-20T04:13:41.479Z,19.80
2022-08-20T04:20:09.449Z,19.60
2022-08-20T04:22:37.541Z,19.50
2022-08-20T04:25:08.258Z,19.40
2022-08-20T04:27:36.777Z,19.50
2022-08-20T04:30:07.112Z,19.50
2022-08-20T04:32:36.209Z,19.50
2022-08-20T04:35:06.710Z,19.50
2022-08-20T04:37:33.933Z,19.50
2022-08-20T04:40:27.011Z,19.60
2022-08-20T04:42:53.344Z,19.60
2022-08-20T04:45:21.712Z,19.70
2022-08-20T04:47:49.249Z,19.80
2022-08-20T04:50:15.601Z,19.90
2022-08-20T04:52:41.987Z,20.00
2022-08-20T04:55:09.673Z,20.10
2022-08-20T04:57:37.706Z,20.10
2022-08-20T05:00:13.415Z,20.20
2022-08-20T05:02:39.718Z,20.20
2022-08-20T05:05:07.767Z,20.00
2022-08-20T05:07:42.928Z,20.30
2022-08-20T05:10:10.916Z,20.20
2022-08-20T05:12:37.207Z,20.20
2022-08-20T05:15:08.262Z,20.30
2022-08-20T05:17:34.562Z,20.40
2022-08-20T05:20:00.817Z,20.40
2022-08-20T05:22:31.049Z,20.50
2022-08-20T05:25:01.208Z,20.60
2022-08-20T05:27:28.715Z,20.70
2022-08-20T05:30:10.239Z,20.70
2022-08-20T05:32:44.487Z,20.80
2022-08-20T05:35:11.667Z,20.90
2022-08-20T05:37:38.723Z,21.00
2022-08-20T05:40:14.067Z,21.10
2022-08-20T05:42:40.516Z,21.20
2022-08-20T05:45:11.125Z,21.40
2022-08-20T05:47:42.880Z,20.40
2022-08-20T05:50:11.069Z,21.90
2022-08-20T05:52:47.172Z,22.10
2022-08-20T05:55:14.520Z,22.40
2022-08-20T05:57:40.933Z,22.70
2022-08-20T06:00:10.006Z,22.80
2022-08-20T06:02:54.945Z,22.80
2022-08-20T06:05:21.275Z,23.00
2022-08-20T06:07:47.695Z,23.00
2022-08-20T06:10:14.031Z,23.40
2022-08-20T06:12:40.305Z,23.70
2022-08-20T06:15:07.091Z,23.90
2022-08-20T06:17:34.876Z,23.80
2022-08-20T06:20:07.997Z,23.60
2022-08-20T06:22:34.857Z,23.50
2022-08-20T06:25:02.041Z,23.70
2022-08-20T06:27:29.447Z,23.70
2022-08-20T06:29:55.747Z,23.60
2022-08-20T06:32:32.485Z,23.50
2022-08-20T06:35:05.345Z,23.40
2022-08-20T06:37:36.104Z,23.70
2022-08-20T06:40:12.183Z,23.90
2022-08-20T06:42:47.829Z,23.70
2022-08-20T06:45:21.335Z,23.70
2022-08-20T06:47:47.733Z,23.80
2022-08-20T06:50:17.888Z,23.70
2022-08-20T06:52:52.219Z,23.70
2022-08-20T06:55:30.269Z,23.70
2022-08-20T06:58:01.840Z,23.60
2022-08-20T07:00:28.380Z,23.60
2022-08-20T07:02:54.922Z,23.40
2022-08-20T07:05:21.210Z,23.20
2022-08-20T07:07:49.269Z,23.10
2022-08-20T07:10:16.811Z,22.90
2022-08-20T07:12:44.294Z,23.00
2022-08-20T07:15:11.450Z,23.00
2022-08-20T07:17:38.457Z,23.10
2022-08-20T07:20:10.484Z,23.10
2022-08-20T07:22:36.731Z,23.10
2022-08-20T07:25:04.216Z,23.20
2022-08-20T07:27:30.565Z,23.20
2022-08-20T07:30:15.412Z,23.20
2022-08-20T07:32:45.296Z,23.20
2022-08-20T07:35:14.559Z,23.30
2022-08-20T07:37:42.772Z,23.40
2022-08-20T07:40:33.145Z,23.50
2022-08-20T07:43:02.934Z,23.90
2022-08-20T07:45:29.958Z,24.00
2022-08-20T07:48:08.390Z,24.20
2022-08-20T07:50:34.665Z,24.40
2022-08-20T07:53:01.414Z,24.40
2022-08-20T07:55:27.729Z,24.50
2022-08-20T07:57:55.307Z,24.80
2022-08-20T08:00:22.472Z,25.20
2022-08-20T08:02:49.475Z,25.10
2022-08-20T08:05:18.012Z,24.80
2022-08-20T08:07:45.562Z,24.80
2022-08-20T08:10:15.130Z,24.50
2022-08-20T08:12:44.943Z,23.90
2022-08-20T08:15:14.993Z,23.80
2022-08-20T08:17:44.140Z,24.00
2022-08-20T08:20:11.672Z,24.00
2022-08-20T08:22:41.094Z,23.90
2022-08-20T08:25:12.484Z,24.10
2022-08-20T08:27:40.349Z,23.90
2022-08-20T08:30:08.306Z,24.20
2022-08-20T08:33:27.099Z,24.90
2022-08-20T08:36:11.174Z,25.10
2022-08-20T08:38:39.432Z,26.00
2022-08-20T08:44:39.619Z,26.50
2022-08-20T08:47:17.726Z,27.30
2022-08-20T08:49:45.285Z,27.80
2022-08-20T08:52:14.578Z,27.60
2022-08-20T08:54:44.555Z,26.70
2022-08-20T08:57:11.289Z,26.00
2022-08-20T08:59:52.089Z,25.80
2022-08-20T09:02:30.212Z,26.60
2022-08-20T09:04:58.066Z,26.70
2022-08-20T09:07:26.299Z,26.40
2022-08-20T09:09:52.678Z,26.90
2022-08-20T09:12:21.202Z,28.30
2022-08-20T09:14:48.547Z,29.30
2022-08-20T09:17:19.857Z,27.60
2022-08-20T09:19:46.342Z,27.60
2022-08-20T09:22:15.084Z,28.10
2022-08-20T09:24:41.959Z,28.60
2022-08-20T09:27:08.368Z,28.10
2022-08-20T09:29:35.134Z,27.60
2022-08-20T09:32:09.864Z,27.60
2022-08-20T09:34:58.340Z,26.70
2022-08-20T09:37:25.888Z,27.40
2022-08-20T09:39:52.300Z,27.90
2022-08-20T09:42:26.625Z,27.80
2022-08-20T09:44:52.996Z,28.00
2022-08-20T09:47:19.342Z,28.90
2022-08-20T09:49:45.660Z,28.90
2022-08-20T09:52:24.790Z,27.80
2022-08-20T09:54:52.298Z,27.30
2022-08-20T09:57:18.771Z,27.00
2022-08-20T09:59:45.546Z,26.30
2022-08-20T10:02:11.901Z,26.80
2022-08-20T10:04:38.324Z,27.70
2022-08-20T10:07:08.053Z,27.40
2022-08-20T10:09:35.439Z,27.60
2022-08-20T10:12:01.947Z,27.80
2022-08-20T10:14:28.241Z,27.50
2022-08-20T10:17:00.042Z,27.10
2022-08-20T10:19:26.948Z,26.70
2022-08-20T10:21:53.435Z,26.80
2022-08-20T10:24:20.123Z,27.10
2022-08-20T10:26:46.434Z,27.40
2022-08-20T10:29:13.011Z,27.30
2022-08-20T10:31:40.153Z,27.70
2022-08-20T10:34:06.517Z,27.10
2022-08-20T10:36:32.930Z,27.10
2022-08-20T10:38:59.185Z,27.90
2022-08-20T10:41:25.679Z,27.20
2022-08-20T10:43:51.946Z,27.10
2022-08-20T10:46:18.338Z,27.20
2022-08-20T10:48:45.250Z,27.20
2022-08-20T10:51:11.764Z,27.10
2022-08-20T10:53:38.404Z,27.00
2022-08-20T10:56:04.857Z,27.10
2022-08-20T10:58:39.307Z,27.40
2022-08-20T11:01:06.670Z,27.50
2022-08-20T11:03:33.405Z,27.10
2022-08-20T11:05:59.938Z,27.10
2022-08-20T11:08:34.045Z,27.10
2022-08-20T11:11:02.762Z,27.60
2022-08-20T11:13:29.127Z,27.10
2022-08-20T11:15:55.563Z,26.60
2022-08-20T11:18:23.251Z,26.60
2022-08-20T11:20:49.868Z,26.60
2022-08-20T11:23:16.189Z,26.80
2022-08-20T11:25:42.511Z,26.70
2022-08-20T11:28:08.798Z,26.50
2022-08-20T11:30:35.647Z,26.50
2022-08-20T11:33:02.030Z,26.80
2022-08-20T11:35:49.509Z,27.00
2022-08-20T11:38:16.682Z,26.90
2022-08-20T11:40:42.906Z,26.90
2022-08-20T11:43:17.468Z,26.80
2022-08-20T11:45:49.190Z,26.80
2022-08-20T11:48:16.263Z,26.80
2022-08-20T11:50:42.552Z,26.90
2022-08-20T11:53:08.924Z,27.20
2022-08-20T11:55:35.509Z,27.40
2022-08-20T11:58:01.926Z,27.90
2022-08-20T12:00:32.154Z,28.90
2022-08-20T12:03:00.721Z,29.10
2022-08-20T12:05:29.029Z,29.10
2022-08-20T12:07:55.385Z,28.60
2022-08-20T12:10:23.861Z,28.30
2022-08-20T12:12:50.245Z,28.30
2022-08-20T12:15:16.750Z,28.30
2022-08-20T12:17:43.188Z,28.40
2022-08-20T12:20:11.050Z,28.30
2022-08-20T12:22:37.382Z,28.40
2022-08-20T12:25:04.653Z,29.00
2022-08-20T12:27:31.588Z,28.70
2022-08-20T12:30:00.376Z,29.90
2022-08-20T12:32:28.643Z,29.60
2022-08-20T12:34:55.048Z,29.20
2022-08-20T12:37:26.665Z,29.90
2022-08-20T12:39:54.450Z,30.20
2022-08-20T12:42:21.101Z,29.50
2022-08-20T12:44:47.701Z,29.10
2022-08-20T12:47:16.344Z,29.30
2022-08-20T12:49:45.283Z,28.70
2022-08-20T12:52:12.403Z,28.00
2022-08-20T12:54:38.821Z,28.60
2022-08-20T12:57:07.980Z,28.60
2022-08-20T12:59:34.539Z,28.90
2022-08-20T13:02:06.982Z,29.40
2022-08-20T13:04:40.851Z,30.30
2022-08-20T13:07:09.512Z,30.20
2022-08-20T13:09:38.427Z,29.50
2022-08-20T13:12:07.498Z,30.00
2022-08-20T13:14:34.390Z,30.60
2022-08-20T13:17:01.387Z,31.00
2022-08-20T13:19:28.257Z,31.00
2022-08-20T13:21:55.105Z,30.40
2022-08-20T13:24:22.455Z,30.40
2022-08-20T13:26:48.945Z,30.60
2022-08-20T13:29:15.415Z,29.90
2022-08-20T13:31:41.767Z,29.80
2022-08-20T13:34:08.037Z,29.70
2022-08-20T13:36:34.464Z,29.50
2022-08-20T13:39:01.404Z,29.60
2022-08-20T13:41:27.736Z,29.40
2022-08-20T13:43:54.085Z,29.30
2022-08-20T13:46:21.020Z,29.80
2022-08-20T13:48:47.686Z,30.20
2022-08-20T13:51:13.962Z,29.80
2022-08-20T13:53:45.694Z,29.70
2022-08-20T13:56:13.105Z,29.70
2022-08-20T13:58:39.487Z,29.30
2022-08-20T14:01:06.171Z,29.50
2022-08-20T14:03:34.544Z,29.50
2022-08-20T14:06:02.126Z,29.80
2022-08-20T14:08:28.507Z,29.80
2022-08-20T14:10:54.806Z,29.60
2022-08-20T14:13:22.575Z,29.80
2022-08-20T14:15:49.263Z,29.00
2022-08-20T14:18:15.524Z,28.70
2022-08-20T14:20:42.062Z,28.40
2022-08-20T14:23:11.655Z,28.20
2022-08-20T14:25:38.030Z,28.20
2022-08-20T14:28:12.163Z,28.10
2022-08-20T14:30:39.241Z,28.00
2022-08-20T14:33:05.546Z,27.80
2022-08-20T14:35:34.633Z,27.70
2022-08-20T14:38:01.737Z,27.70
2022-08-20T14:40:31.682Z,27.80
2022-08-20T14:42:58.205Z,27.80
2022-08-20T14:45:24.799Z,27.60
2022-08-20T14:47:56.408Z,27.50
2022-08-20T14:50:27.987Z,27.40
2022-08-20T14:52:54.781Z,27.20
2022-08-20T14:55:22.631Z,27.20
2022-08-20T14:57:51.508Z,27.10
2022-08-20T15:00:20.863Z,26.90
2022-08-20T15:02:47.353Z,26.80
2022-08-20T15:05:13.847Z,26.80
2022-08-20T15:07:42.917Z,26.70
2022-08-20T15:10:12.132Z,26.60
2022-08-20T15:12:38.402Z,26.50
2022-08-20T15:15:15.631Z,26.40
2022-08-20T15:17:44.694Z,26.30
2022-08-20T15:20:19.918Z,26.20
2022-08-20T15:22:46.886Z,25.80
2022-08-20T15:25:14.550Z,25.30
2022-08-20T15:27:41.384Z,25.00
2022-08-20T15:30:10.749Z,24.80
2022-08-20T15:32:37.526Z,24.60
2022-08-20T15:35:04.299Z,24.40
2022-08-20T15:37:32.124Z,24.40
2022-08-20T15:40:02.324Z,24.20
2022-08-20T15:42:28.683Z,24.10
2022-08-20T15:44:55.058Z,24.10
2022-08-20T15:47:33.458Z,24.00
2022-08-20T15:50:14.814Z,23.80
2022-08-20T15:52:42.730Z,23.60
2022-08-20T15:55:12.135Z,23.30
2022-08-20T16:01:29.387Z,23.10
2022-08-20T16:06:33.318Z,22.70
2022-08-20T16:09:33.904Z,22.30
2022-08-20T16:12:08.190Z,22.10
2022-08-20T16:14:37.048Z,22.10
2022-08-20T16:17:15.441Z,22.00
2022-08-20T16:19:56.075Z,21.90
2022-08-20T16:22:22.304Z,21.80
2022-08-20T16:24:48.595Z,21.70
2022-08-20T16:27:35.398Z,21.70
2022-08-20T16:30:11.181Z,21.50
2022-08-20T16:32:40.802Z,21.50
2022-08-20T16:35:32.948Z,21.40
2022-08-20T16:38:21.463Z,21.30
2022-08-20T16:41:01.529Z,21.20
2022-08-20T16:43:45.395Z,21.20
2022-08-20T16:46:20.126Z,21.10
2022-08-20T16:48:57.649Z,21.10
2022-08-20T16:51:47.099Z,21.10
2022-08-20T16:54:16.213Z,21.10
2022-08-20T16:56:44.630Z,21.00
2022-08-20T16:59:27.073Z,21.00
2022-08-20T17:02:27.597Z,21.00
2022-08-20T17:04:59.246Z,21.00
2022-08-20T17:07:46.170Z,20.90
2022-08-20T17:10:30.571Z,20.90
2022-08-20T17:13:44.151Z,20.90
2022-08-20T17:16:18.743Z,20.90
2022-08-20T17:18:52.464Z,20.90
2022-08-20T17:21:25.586Z,20.90
2022-08-20T17:23:56.751Z,20.90
2022-08-20T17:26:32.199Z,20.80
2022-08-20T17:29:00.169Z,20.80
2022-08-20T17:31:38.535Z,20.80
2022-08-20T17:34:17.864Z,20.70
2022-08-20T17:37:07.601Z,20.70
2022-08-20T17:39:34.047Z,20.70
2022-08-20T17:42:13.645Z,20.70
2022-08-20T17:44:45.071Z,20.60
2022-08-20T17:47:15.750Z,20.60
2022-08-20T17:50:02.222Z,20.60
2022-08-20T17:52:41.828Z,20.60
2022-08-20T17:55:08.806Z,20.60
2022-08-20T17:57:37.586Z,20.60
2022-08-20T18:00:08.097Z,20.70
2022-08-20T18:02:36.890Z,20.60
2022-08-20T18:05:11.032Z,20.60
2022-08-20T18:07:55.268Z,20.60
2022-08-20T18:10:23.374Z,20.60
2022-08-20T18:13:02.786Z,20.60
2022-08-20T18:15:35.851Z,20.50
2022-08-20T18:18:57.537Z,20.50
2022-08-20T18:22:53.031Z,20.50
2022-08-20T18:26:35.976Z,20.40
2022-08-20T18:29:13.960Z,20.40
2022-08-20T18:31:51.568Z,20.40
2022-08-20T18:34:56.277Z,20.40
2022-08-20T18:37:26.993Z,20.40
2022-08-20T18:40:09.735Z,20.30
2022-08-20T18:42:36.479Z,20.30
2022-08-20T18:45:03.932Z,20.30
2022-08-20T18:47:40.951Z,20.30
2022-08-20T18:50:42.307Z,20.30
2022-08-20T18:53:34.335Z,20.20
2022-08-20T18:56:08.685Z,20.30
2022-08-20T18:58:59.266Z,20.20
2022-08-20T19:01:26.205Z,20.20
2022-08-20T19:03:54.477Z,20.20
2022-08-20T19:06:55.485Z,20.20
2022-08-20T19:10:37.356Z,20.20
2022-08-20T19:13:16.473Z,20.20
2022-08-20T19:15:55.274Z,20.10
2022-08-20T19:18:26.002Z,20.10
2022-08-20T19:21:00.084Z,20.10
2022-08-20T19:23:28.307Z,20.10
2022-08-20T19:26:12.444Z,20.10
2022-08-20T19:29:06.209Z,20.10
2022-08-20T19:31:33.508Z,20.10
2022-08-20T19:34:23.869Z,20.10
2022-08-20T19:36:58.783Z,20.10
2022-08-20T19:39:29.016Z,20.20
2022-08-20T19:42:02.401Z,20.20
2022-08-20T19:44:38.252Z,20.20
2022-08-20T19:47:07.274Z,20.30
2022-08-20T19:50:36.469Z,20.30
2022-08-20T19:53:30.546Z,20.30
2022-08-20T19:56:40.604Z,20.30
2022-08-20T19:59:18.445Z,20.40
2022-08-20T20:02:20.512Z,20.40
2022-08-20T20:04:55.279Z,20.40
2022-08-20T20:07:45.161Z,20.40
2022-08-20T20:10:24.487Z,20.40
2022-08-20T20:12:51.669Z,20.40
2022-08-20T20:15:18.136Z,20.40
2022-08-20T20:17:44.842Z,19.90
2022-08-20T20:20:25.840Z,20.50
2022-08-20T20:23:03.118Z,23.20
2022-08-20T20:25:41.822Z,20.50
2022-08-20T20:28:17.900Z,20.50
2022-08-20T20:30:44.804Z,20.50
2022-08-20T20:33:58.249Z,20.50
2022-08-20T20:36:39.082Z,20.50
2022-08-20T20:39:14.300Z,20.50
2022-08-20T20:41:50.308Z,20.50
2022-08-20T20:44:35.108Z,20.60
2022-08-20T20:47:08.086Z,20.60
2022-08-20T20:49:53.497Z,20.60
2022-08-20T20:52:27.953Z,20.70
2022-08-20T20:55:38.243Z,20.60
2022-08-20T20:58:04.601Z,20.70
2022-08-20T21:00:32.203Z,20.60
2022-08-20T21:02:59.666Z,20.60
2022-08-20T21:05:29.768Z,20.60
2022-08-20T21:08:00.575Z,20.60
2022-08-20T21:10:29.803Z,20.60
2022-08-20T21:12:56.952Z,20.60
2022-08-20T21:15:23.730Z,20.60
2022-08-20T21:17:50.940Z,20.50
2022-08-20T21:20:18.264Z,20.50
2022-08-20T21:22:45.037Z,20.50
2022-08-20T21:25:14.118Z,20.50
2022-08-20T21:27:43.939Z,20.50
2022-08-20T21:30:11.959Z,20.40
2022-08-20T21:32:38.336Z,20.40
2022-08-20T21:35:06.569Z,19.90
2022-08-20T21:37:33.763Z,20.40
2022-08-20T21:40:00.443Z,20.40
2022-08-20T21:42:33.008Z,20.30
2022-08-20T21:45:10.041Z,20.40
2022-08-20T21:47:36.417Z,20.30
2022-08-20T21:50:04.807Z,20.40
2022-08-20T21:52:31.117Z,20.30
2022-08-20T21:54:57.637Z,20.30
2022-08-20T21:57:26.145Z,20.30
2022-08-20T21:59:52.425Z,20.30
2022-08-20T22:02:25.351Z,20.30
2022-08-20T22:04:53.885Z,20.30
2022-08-20T22:07:20.561Z,20.20
2022-08-20T22:09:47.080Z,20.20
2022-08-20T22:12:23.874Z,20.20
2022-08-20T22:14:50.427Z,20.10
2022-08-20T22:17:20.117Z,20.10
2022-08-20T22:19:47.500Z,20.00
2022-08-20T22:22:14.988Z,20.00
2022-08-20T22:24:41.868Z,20.00
2022-08-20T22:27:08.439Z,20.00
2022-08-20T22:29:35.737Z,20.00
2022-08-20T22:32:03.275Z,20.00
2022-08-20T22:34:31.561Z,20.00
2022-08-20T22:36:58.108Z,20.00
2022-08-20T22:39:24.576Z,20.00
2022-08-20T22:41:52.534Z,20.00
2022-08-20T22:44:18.892Z,20.00
2022-08-20T22:46:48.846Z,19.90
2022-08-20T22:49:17.147Z,19.90
2022-08-20T22:51:44.193Z,19.80
2022-08-20T22:54:12.035Z,19.80
2022-08-20T22:56:38.863Z,19.80
2022-08-20T22:59:07.275Z,19.80
2022-08-20T23:01:33.677Z,19.80
2022-08-20T23:04:05.528Z,19.80
2022-08-20T23:06:32.586Z,19.80
2022-08-20T23:08:58.829Z,19.80
2022-08-20T23:11:25.469Z,19.70
2022-08-20T23:13:51.942Z,19.80
2022-08-20T23:16:18.255Z,19.80
2022-08-20T23:18:44.588Z,19.80
2022-08-20T23:21:10.898Z,19.80
2022-08-20T23:23:37.578Z,19.70
2022-08-20T23:26:03.956Z,19.80
2022-08-20T23:28:30.249Z,19.80
2022-08-20T23:30:56.633Z,19.80
2022-08-20T23:33:22.920Z,19.80
2022-08-20T23:35:52.057Z,19.80
2022-08-20T23:38:19.943Z,19.80
2022-08-20T23:40:46.262Z,19.80
2022-08-20T23:43:12.897Z,19.80
2022-08-20T23:45:39.707Z,19.80
2022-08-20T23:48:07.203Z,19.80
2022-08-20T23:50:33.622Z,19.80
2022-08-20T23:52:59.917Z,19.80
2022-08-20T23:55:26.146Z,19.90
2022-08-20T23:57:52.637Z,19.80
